Terminal Aerodrome Forecast
Issued by NWS

Home | Current Version | Previous Version | Text Only | Print | Product List | Glossary On
Versions: 1 2 3 4 5 6 7 8 9 10 11 12 13 14 15 16 17 18 19 20 21 22
000
FTUS42 KMLB 051304 AAA
TAFLEE
TAF AMD
KLEE 051304Z 0513/0612 33012KT P6SM SKC
     FM051400 30016G23KT P6SM SKC
     FM052330 28011KT P6SM SKC=

USA.gov is the U.S. government's official web portal to all federal, state and local government web resources and services.